Terminal Aerodrome Forecast
Issued by NWS

Home | Current Version | Previous Version | Graphics & Text | Print | Product List | Glossary Off
Versions: 1 2 3 4 5 6 7 8 9 10 11 12 13 14 15 16 17 18 19 20 21 22 23 24 25 26 27 28 29 30 31 32 33 34 35 36 37 38 39 40 41 42 43 44 45 46 47 48 49 50

820
FTUS43 KDDC 201722 AAA
TAFHYS
TAF AMD
KHYS 201722Z 2017/2118 18007KT 3/4SM BR OVC002
     FM201900 16005KT 5SM BR OVC020
     FM210000 29007KT 5SM BR VCSH OVC020
     FM210300 27008KT P6SM VCSH OVC050
     FM210900 27004KT 5SM BR VCFG SCT150=

USA.gov is the U.S. government's official web portal to all federal, state and local government web resources and services.